Time;durP1;ratioP1;P1;durP2;ratioP2;P2;SDS_P1;SDS_P2;PMS_P1;PMS_P2;Temp;Humidity;BMP_temperature;BMP_pressure;BME280_temperature;BME280_humidity;BME280_pressure;Samples;Min_cycle;Max_cycle;Signal;HPM_P1;HPM_P2
2020/12/11 00:01:58;;;;;;;43.02;18.07;;;;;;;0.63;82.46;99876.72;1730269;82;21298;-77
2020/12/11 00:04:26;;;;;;;38.50;19.55;;;;;;;0.55;82.68;99870.85;1752155;82;21694;-77
2020/12/11 00:06:58;;;;;;;39.63;20.05;;;;;;;0.69;82.44;99883.06;1752200;82;21313;-77
2020/12/11 00:09:26;;;;;;;40.33;16.93;;;;;;;0.79;82.05;99862.81;1752250;82;21160;-77
2020/12/11 00:11:55;;;;;;;41.30;19.35;;;;;;;0.73;82.04;99862.55;1752605;82;21575;-77
2020/12/11 00:14:23;;;;;;;36.30;17.12;;;;;;;0.66;82.22;99864.91;1730074;82;21222;-77
2020/12/11 00:16:50;;;;;;;40.45;18.48;;;;;;;0.85;81.85;99856.59;1721552;82;21169;-77
2020/12/11 00:19:17;;;;;;;34.92;17.57;;;;;;;0.78;81.86;99848.09;1723958;82;21202;-77
2020/12/11 00:21:48;;;;;;;37.28;20.25;;;;;;;0.68;82.03;99852.72;1740532;82;21315;-77
2020/12/11 00:24:15;;;;;;;41.98;19.40;;;;;;;0.76;81.82;99840.33;1718307;83;21137;-77
2020/12/11 00:26:45;;;;;;;44.33;20.95;;;;;;;0.77;81.64;99856.36;1718248;83;21164;-77
2020/12/11 00:29:13;;;;;;;37.15;18.07;;;;;;;0.68;81.83;99848.81;1718389;83;21628;-77
2020/12/11 00:31:40;;;;;;;34.70;16.77;;;;;;;0.77;81.76;99856.36;1718225;83;21815;-77
2020/12/11 00:34:09;;;;;;;39.45;18.57;;;;;;;0.88;81.34;99846.08;1721151;83;21164;-77
2020/12/11 00:36:36;;;;;;;40.83;17.15;;;;;;;0.76;81.51;99859.02;1731352;83;21482;-77
2020/12/11 00:39:04;;;;;;;32.93;17.50;;;;;;;0.69;81.74;99846.63;1731074;83;21168;-77
2020/12/11 00:41:31;;;;;;;34.95;17.23;;;;;;;0.64;81.41;99831.59;1730808;82;21160;-76
2020/12/11 00:43:58;;;;;;;39.33;17.85;;;;;;;0.78;81.28;99858.06;1719601;83;21351;-77
2020/12/11 00:46:25;;;;;;;37.10;17.62;;;;;;;0.69;81.57;99849.23;1719069;83;21581;-77
2020/12/11 00:48:53;;;;;;;34.55;16.57;;;;;;;0.78;81.37;99851.56;1720569;82;21208;-76
2020/12/11 00:51:21;;;;;;;36.90;18.80;;;;;;;0.83;81.21;99850.57;1720336;83;21813;-76
2020/12/11 00:53:49;;;;;;;31.80;17.05;;;;;;;0.74;81.36;99854.28;1727918;82;21222;-77
2020/12/11 00:56:17;;;;;;;32.83;17.42;;;;;;;0.74;81.33;99850.38;1750239;82;21305;-77
2020/12/11 00:58:45;;;;;;;25.88;13.88;;;;;;;0.86;80.96;99851.77;1752437;82;21151;-76
2020/12/11 01:01:13;;;;;;;35.75;16.95;;;;;;;0.75;81.09;99845.12;1752506;82;21155;-76
2020/12/11 01:03:40;;;;;;;36.93;16.70;;;;;;;0.67;81.42;99851.00;1752265;82;21373;-76
2020/12/11 01:06:10;;;;;;;34.40;17.05;;;;;;;0.78;81.10;99843.75;1739493;82;21567;-76
2020/12/11 01:08:38;;;;;;;33.85;16.23;;;;;;;0.78;81.00;99837.24;1735051;82;21138;-76
2020/12/11 01:11:05;;;;;;;29.63;17.02;;;;;;;0.73;81.14;99839.55;1734193;82;21766;-77
2020/12/11 01:13:32;;;;;;;29.63;13.95;;;;;;;0.73;81.03;99839.13;1741519;82;21182;-76
2020/12/11 01:19:09;;;;;;;29.80;15.90;;;;;;;0.78;80.96;99845.05;1722122;81;64572;-77
2020/12/11 01:21:37;;;;;;;29.40;15.10;;;;;;;0.73;81.23;99838.25;1728185;83;21638;-76
2020/12/11 01:24:05;;;;;;;30.95;16.05;;;;;;;0.84;80.84;99834.05;1728172;83;21337;-77
2020/12/11 01:26:32;;;;;;;33.35;17.52;;;;;;;0.78;80.94;99828.13;1728113;83;21194;-77
2020/12/11 01:28:59;;;;;;;27.07;14.00;;;;;;;0.73;81.07;99831.31;1728138;83;21187;-77
2020/12/11 01:31:26;;;;;;;29.75;13.95;;;;;;;0.84;80.82;99820.58;1728469;83;21614;-76
2020/12/11 01:33:53;;;;;;;28.47;14.45;;;;;;;0.75;80.99;99836.01;1728386;83;21305;-76
2020/12/11 01:36:26;;;;;;;27.42;15.90;;;;;;;0.70;81.16;99822.73;1730587;82;21175;-76
2020/12/11 01:38:54;;;;;;;30.62;16.42;;;;;;;0.85;80.81;99826.66;1732513;82;21111;-77
2020/12/11 01:44:30;;;;;;;25.25;12.75;;;;;;;0.75;81.10;99829.50;1752192;79;65509;-77
2020/12/11 01:46:57;;;;;;;25.00;13.43;;;;;;;0.85;80.89;99817.55;1785006;80;21316;-77
2020/12/11 01:52:26;;;;;;;32.90;16.17;;;;;;;0.71;81.21;99823.14;1708586;83;21611;-77
2020/12/11 01:54:53;;;;;;;28.35;15.00;;;;;;;0.82;81.01;99819.79;1708843;83;21175;-77
2020/12/11 01:57:44;;;;;;;24.95;13.68;;;;;;;0.78;81.06;99825.53;1708861;84;21293;-77
2020/12/11 02:00:12;;;;;;;25.82;13.40;;;;;;;0.68;81.25;99813.67;1708676;84;21301;-75
2020/12/11 02:02:40;;;;;;;26.87;13.85;;;;;;;0.74;81.19;99802.22;1708710;83;21187;-75
2020/12/11 02:05:09;;;;;;;28.23;14.07;;;;;;;0.83;80.84;99811.52;1708716;83;21793;-77
2020/12/11 02:07:38;;;;;;;31.02;14.60;;;;;;;0.77;80.95;99801.69;1708664;83;21759;-75
2020/12/11 02:10:10;;;;;;;29.00;14.58;;;;;;;0.73;80.94;99811.79;1708971;84;21603;-75
2020/12/11 02:12:41;;;;;;;26.55;15.25;;;;;;;0.86;80.42;99806.20;1708764;84;21583;-74
2020/12/11 02:15:08;;;;;;;22.70;12.00;;;;;;;0.83;80.46;99808.91;1708707;83;21310;-75
2020/12/11 02:17:36;;;;;;;25.43;14.28;;;;;;;0.74;80.64;99800.92;1708616;83;21309;-75
2020/12/11 02:20:04;;;;;;;22.93;12.40;;;;;;;0.81;80.62;99808.50;1709381;83;21587;-75
2020/12/11 02:22:31;;;;;;;26.93;13.68;;;;;;;0.70;80.33;99783.23;1708730;84;21324;-74
2020/12/11 02:24:58;;;;;;;27.73;13.03;;;;;;;0.76;80.25;99797.83;1708792;83;21168;-75
2020/12/11 02:27:25;;;;;;;25.57;13.88;;;;;;;0.72;80.47;99813.98;1708905;83;21747;-75
2020/12/11 02:29:52;;;;;;;23.38;14.40;;;;;;;0.85;79.92;99804.52;1708962;83;21211;-75
2020/12/11 02:32:21;;;;;;;24.23;12.75;;;;;;;0.86;80.10;99811.41;1708714;83;21184;-74
2020/12/11 02:34:49;;;;;;;24.75;12.35;;;;;;;0.71;80.46;99812.73;1708631;83;21187;-75
2020/12/11 02:37:17;;;;;;;26.52;13.35;;;;;;;0.80;80.29;99817.20;1708923;83;21171;-75
2020/12/11 02:39:44;;;;;;;24.43;12.80;;;;;;;0.83;79.94;99818.02;1708707;83;21326;-75
2020/12/11 02:42:11;;;;;;;23.73;12.28;;;;;;;0.74;80.31;99826.52;1708776;83;21220;-75
2020/12/11 02:44:38;;;;;;;23.73;12.80;;;;;;;0.73;80.42;99817.00;1708699;83;21309;-75
2020/12/11 02:47:05;;;;;;;24.20;13.35;;;;;;;0.84;80.14;99824.48;1709180;83;21594;-75
2020/12/11 02:49:32;;;;;;;25.35;12.58;;;;;;;0.78;80.24;99824.22;1709149;83;21163;-75
2020/12/11 02:52:01;;;;;;;21.55;12.40;;;;;;;0.71;80.43;99829.19;1707199;82;21297;-75
2020/12/11 02:54:28;;;;;;;26.10;13.28;;;;;;;0.76;80.35;99824.70;1707572;83;21190;-75
2020/12/11 02:56:56;;;;;;;28.00;14.35;;;;;;;0.77;80.07;99838.13;1706709;83;21302;-75
2020/12/11 02:59:23;;;;;;;22.87;12.73;;;;;;;0.68;80.18;99832.33;1699140;84;21203;-75
2020/12/11 03:01:50;;;;;;;24.32;12.95;;;;;;;0.70;80.27;99825.34;1692573;83;21359;-75
2020/12/11 03:04:17;;;;;;;27.07;13.53;;;;;;;0.79;79.67;99822.03;1679253;85;21235;-75
2020/12/11 03:06:46;;;;;;;25.00;12.95;;;;;;;0.79;79.68;99812.05;1669911;85;21825;-75
2020/12/11 03:09:13;;;;;;;24.47;12.90;;;;;;;0.74;79.85;99829.12;1674698;84;21159;-75
2020/12/11 03:11:41;;;;;;;24.18;12.80;;;;;;;0.76;79.77;99823.86;1707032;83;21180;-75
2020/12/11 03:14:11;;;;;;;22.52;12.65;;;;;;;0.83;79.32;99816.27;1698975;84;21179;-75
2020/12/11 03:16:37;;;;;;;22.17;11.18;;;;;;;0.76;79.47;99823.86;1706463;83;21314;-75
2020/12/11 03:19:05;;;;;;;19.87;11.40;;;;;;;0.65;79.79;99806.81;1705861;83;21207;-75
2020/12/11 03:21:33;;;;;;;24.10;12.35;;;;;;;0.78;79.66;99815.11;1698068;84;21183;-75
2020/12/11 03:24:00;;;;;;;29.25;13.70;;;;;;;0.78;79.62;99815.11;1687074;84;21320;-75
2020/12/11 03:26:27;;;;;;;26.23;11.63;;;;;;;0.63;79.87;99814.25;1671566;85;21349;-75
2020/12/11 03:28:54;;;;;;;24.20;12.80;;;;;;;0.64;79.86;99819.88;1677136;85;21207;-75
2020/12/11 03:31:21;;;;;;;24.40;12.78;;;;;;;0.73;79.79;99814.39;1677305;85;21348;-75
2020/12/11 03:33:49;;;;;;;20.92;12.03;;;;;;;0.62;79.88;99818.59;1677857;83;21167;-75
2020/12/11 03:36:19;;;;;;;24.45;12.55;;;;;;;0.59;79.87;99819.98;1680613;85;21325;-75
2020/12/11 03:38:48;;;;;;;23.02;11.83;;;;;;;0.71;79.52;99817.48;1670874;85;21321;-75
2020/12/11 03:41:17;;;;;;;21.17;12.05;;;;;;;0.71;79.51;99814.88;1670155;85;22300;-75
2020/12/11 03:43:44;;;;;;;23.65;12.40;;;;;;;0.57;79.73;99817.02;1691923;84;21219;-75
2020/12/11 03:46:21;;;;;;;19.10;11.63;;;;;;;0.60;79.82;99823.44;1699079;84;21179;-75
2020/12/11 03:48:50;;;;;;;26.25;13.03;;;;;;;0.68;79.48;99817.58;1698729;84;21325;-75
2020/12/11 03:51:19;;;;;;;21.85;12.60;;;;;;;0.57;79.49;99823.53;1698880;83;21199;-75
2020/12/11 03:53:46;;;;;;;25.72;12.58;;;;;;;0.55;79.70;99824.01;1706792;83;21326;-75
2020/12/11 03:56:16;;;;;;;22.82;13.55;;;;;;;0.62;79.26;99854.19;1698708;84;21167;-75
2020/12/11 03:58:43;;;;;;;21.93;12.55;;;;;;;0.71;79.01;99826.59;1698864;84;21336;-75
2020/12/11 04:01:12;;;;;;;23.50;12.37;;;;;;;0.58;79.47;99820.04;1706779;83;21186;-75
2020/12/11 04:03:40;;;;;;;21.87;11.73;;;;;;;0.55;79.63;99821.41;1678119;84;21162;-75
2020/12/11 04:06:09;;;;;;;24.18;13.13;;;;;;;0.65;79.40;99821.55;1671483;85;21722;-75
2020/12/11 04:08:37;;;;;;;21.93;11.57;;;;;;;0.57;79.43;99822.23;1671845;85;21325;-75
2020/12/11 04:11:09;;;;;;;22.05;11.90;;;;;;;0.51;79.63;99821.09;1681537;84;21199;-75
2020/12/11 04:13:36;;;;;;;22.93;12.60;;;;;;;0.60;79.18;99824.73;1706903;83;21168;-74
2020/12/11 04:16:03;;;;;;;21.95;11.73;;;;;;;0.58;79.04;99829.14;1709158;83;21603;-75
2020/12/11 04:18:30;;;;;;;19.40;10.85;;;;;;;0.51;79.28;99838.01;1709122;83;21195;-75
2020/12/11 04:20:58;;;;;;;23.70;11.93;;;;;;;0.46;79.22;99840.30;1691384;84;21290;-75
2020/12/11 04:23:25;;;;;;;23.95;12.50;;;;;;;0.61;78.81;99848.11;1685021;84;21191;-74
2020/12/11 04:25:54;;;;;;;21.33;11.70;;;;;;;0.55;78.78;99842.23;1684892;82;21186;-75
2020/12/11 04:28:23;;;;;;;22.50;10.63;;;;;;;0.45;79.05;99825.58;1677774;85;21223;-75
2020/12/11 04:30:50;;;;;;;22.77;12.45;;;;;;;0.48;78.89;99824.63;1669327;85;21162;-75
2020/12/11 04:33:19;;;;;;;25.60;13.65;;;;;;;0.49;78.67;99828.48;1667496;83;21202;-75
2020/12/11 04:35:47;;;;;;;22.35;11.38;;;;;;;0.42;78.83;99833.48;1681663;85;21171;-75
2020/12/11 04:38:14;;;;;;;25.10;12.35;;;;;;;0.39;78.89;99836.61;1681946;82;21733;-75
2020/12/11 04:40:41;;;;;;;20.72;10.63;;;;;;;0.48;78.25;99835.88;1680540;85;21349;-75
2020/12/11 04:43:09;;;;;;;24.37;12.10;;;;;;;0.47;78.30;99839.41;1669990;85;21147;-74
2020/12/11 04:45:39;;;;;;;21.15;10.90;;;;;;;0.34;78.68;99836.72;1677970;85;21373;-74
2020/12/11 04:48:10;;;;;;;21.50;11.43;;;;;;;0.41;78.08;99847.38;1686579;83;21170;-75
2020/12/11 04:50:37;;;;;;;24.15;12.75;;;;;;;0.46;77.91;99844.62;1698405;83;21194;-74
2020/12/11 04:53:04;;;;;;;21.82;11.12;;;;;;;0.37;78.14;99848.36;1695596;84;21342;-75
2020/12/11 04:55:35;;;;;;;23.10;11.38;;;;;;;0.34;78.34;99858.83;1695243;84;21754;-74
2020/12/11 04:58:05;;;;;;;17.65;10.43;;;;;;;0.43;77.96;99861.17;1683248;83;21187;-74
2020/12/11 05:00:32;;;;;;;23.27;11.33;;;;;;;0.37;78.12;99861.38;1667177;85;21582;-74
2020/12/11 05:03:00;;;;;;;25.30;11.93;;;;;;;0.26;78.42;99863.39;1667300;86;21214;-74
2020/12/11 05:05:27;;;;;;;23.22;11.78;;;;;;;0.36;78.19;99871.36;1667930;85;21222;-74
2020/12/11 05:07:56;;;;;;;22.65;12.33;;;;;;;0.39;77.89;99867.36;1695014;85;21340;-75
2020/12/11 05:10:23;;;;;;;24.60;11.83;;;;;;;0.32;78.02;99876.25;1695303;84;21211;-74
2020/12/11 05:12:50;;;;;;;20.88;11.63;;;;;;;0.30;77.93;99870.22;1694979;85;21167;-75
2020/12/11 05:15:18;;;;;;;24.80;12.15;;;;;;;0.44;77.48;99872.45;1677404;85;21194;-75
2020/12/11 05:17:45;;;;;;;22.62;11.18;;;;;;;0.42;77.27;99867.73;1667102;86;21320;-74
2020/12/11 05:20:12;;;;;;;21.10;10.63;;;;;;;0.30;77.44;99879.33;1667100;86;21231;-74
2020/12/11 05:22:41;;;;;;;24.45;11.88;;;;;;;0.31;77.52;99877.13;1667135;86;21860;-73
2020/12/11 05:25:15;;;;;;;19.95;9.63;;;;;;;0.38;77.02;99873.92;1682717;85;21284;-73
2020/12/11 05:27:45;;;;;;;24.67;12.00;;;;;;;0.25;77.07;99878.13;1695010;85;21301;-73
2020/12/11 05:30:18;;;;;;;27.80;11.25;;;;;;;0.20;77.25;99878.70;1694909;84;21170;-72
2020/12/11 05:32:55;;;;;;;24.17;11.10;;;;;;;0.15;77.23;99875.36;1695356;85;21310;-72
2020/12/11 05:35:30;;;;;;;22.05;12.40;;;;;;;0.15;77.35;99887.06;1694362;85;21163;-73
2020/12/11 05:38:04;;;;;;;25.50;12.65;;;;;;;0.19;76.75;99895.64;1695093;85;21151;-73
2020/12/11 05:40:37;;;;;;;24.57;12.95;;;;;;;0.08;77.24;99892.03;1695327;85;21345;-73
2020/12/11 05:43:17;;;;;;;22.60;11.78;;;;;;;0.04;77.28;99883.88;1693161;85;21178;-73
2020/12/11 05:45:53;;;;;;;23.32;12.85;;;;;;;-0.01;77.17;99881.41;1666972;86;21794;-73
2020/12/11 05:48:37;;;;;;;21.55;11.53;;;;;;;-0.07;76.59;99888.89;1667231;85;21179;-73
2020/12/11 05:51:15;;;;;;;22.87;12.00;;;;;;;-0.08;76.60;99888.48;1682830;85;21163;-73
2020/12/11 05:53:43;;;;;;;24.43;13.13;;;;;;;-0.15;76.49;99886.06;1695130;85;21344;-73
2020/12/11 05:56:10;;;;;;;22.48;12.47;;;;;;;-0.19;77.00;99882.25;1677947;84;21180;-73
2020/12/11 05:58:38;;;;;;;26.90;12.15;;;;;;;-0.23;77.09;99884.95;1682932;84;21147;-74
2020/12/11 06:01:05;;;;;;;22.13;11.25;;;;;;;-0.22;77.13;99892.73;1666757;85;21324;-75
2020/12/11 06:03:34;;;;;;;21.68;12.07;;;;;;;-0.26;77.11;99881.98;1681516;85;21808;-75
2020/12/11 06:06:02;;;;;;;22.58;12.37;;;;;;;-0.25;77.01;99884.16;1680438;83;21231;-77
2020/12/11 06:08:29;;;;;;;26.65;12.20;;;;;;;-0.27;77.30;99885.92;1639930;86;21346;-76
2020/12/11 06:10:56;;;;;;;21.48;12.78;;;;;;;-0.32;77.05;99887.78;1644310;86;22218;-78
2020/12/11 06:13:40;;;;;;;27.02;12.80;;;;;;;-0.31;76.98;99880.39;1635334;86;21327;-76
2020/12/11 06:16:09;;;;;;;23.30;12.05;;;;;;;-0.29;77.18;99892.46;1657875;86;21593;-76
2020/12/11 06:18:37;;;;;;;21.85;11.10;;;;;;;-0.26;76.89;99884.58;1661551;86;21351;-77
2020/12/11 06:21:05;;;;;;;24.77;10.88;;;;;;;-0.32;76.87;99889.92;1661293;86;21212;-77
2020/12/11 06:23:32;;;;;;;21.45;10.98;;;;;;;-0.33;76.51;99892.13;1661286;86;21354;-77
2020/12/11 06:26:03;;;;;;;22.62;12.78;;;;;;;-0.36;76.57;99886.98;1661471;86;21204;-77
2020/12/11 06:28:39;;;;;;;19.00;10.23;;;;;;;-0.38;76.63;99884.89;1661310;86;21173;-76
2020/12/11 06:31:16;;;;;;;23.42;11.63;;;;;;;-0.42;76.34;99891.02;1661497;86;21184;-77
2020/12/11 06:33:51;;;;;;;22.25;12.20;;;;;;;-0.47;75.92;99882.48;1661393;86;21181;-78
2020/12/11 06:36:19;;;;;;;22.82;12.85;;;;;;;-0.48;75.98;99901.58;1660311;86;21355;-76
2020/12/11 06:38:52;;;;;;;27.30;13.08;;;;;;;-0.59;76.12;99897.48;1646376;86;21169;-75
2020/12/11 06:41:31;;;;;;;22.93;12.63;;;;;;;-0.54;76.32;99899.53;1639124;86;21319;-75
2020/12/11 06:44:11;;;;;;;28.02;12.78;;;;;;;-0.55;76.25;99899.54;1637468;86;21228;-74
2020/12/11 06:46:39;;;;;;;22.65;12.23;;;;;;;-0.57;76.22;99894.38;1645149;86;21597;-74
2020/12/11 06:49:13;;;;;;;21.93;11.20;;;;;;;-0.58;76.37;99899.63;1642334;83;21174;-74
2020/12/11 06:51:51;;;;;;;22.90;11.60;;;;;;;-0.67;75.94;99908.47;1690925;83;21139;-75
2020/12/11 06:54:27;;;;;;;21.07;11.15;;;;;;;-0.67;76.00;99899.38;1740660;82;21523;-74
2020/12/11 06:56:57;;;;;;;21.00;11.28;;;;;;;-0.77;75.56;99892.67;1708508;83;21481;-75
2020/12/11 07:00:59;;;;;;;23.52;11.43;;;;;;;-0.76;75.83;99891.79;1812571;79;23047;-67
2020/12/11 07:03:30;;;;;;;23.98;11.55;;;;;;;-0.86;75.98;99891.99;1710190;83;21314;-68
2020/12/11 07:06:05;;;;;;;21.17;10.78;;;;;;;-0.87;75.65;99895.47;1717769;83;21262;-68
2020/12/11 07:08:33;;;;;;;21.30;11.22;;;;;;;-0.89;75.50;99893.34;1691539;84;21131;-68
2020/12/11 07:11:06;;;;;;;21.50;11.05;;;;;;;-0.87;75.65;99878.59;1720130;83;21189;-66
2020/12/11 07:13:35;;;;;;;20.07;11.17;;;;;;;-0.93;75.75;99886.51;1707917;83;21178;-67
2020/12/11 07:16:04;;;;;;;22.58;12.35;;;;;;;-0.89;75.92;99882.11;1717416;83;21316;-68
2020/12/11 07:18:31;;;;;;;23.92;12.63;;;;;;;-0.93;76.23;99883.91;1712428;83;21168;-68
2020/12/11 07:20:58;;;;;;;21.52;11.75;;;;;;;-0.93;76.10;99880.02;1730392;83;21138;-67
2020/12/11 07:23:26;;;;;;;21.62;11.68;;;;;;;-0.95;76.37;99879.64;1720312;83;21329;-68
2020/12/11 07:25:55;;;;;;;24.77;12.23;;;;;;;-0.88;75.92;99877.34;1690102;84;21633;-68
2020/12/11 07:28:22;;;;;;;24.70;12.70;;;;;;;-0.92;75.69;99872.64;1695626;84;21429;-68
2020/12/11 07:30:49;;;;;;;23.42;12.53;;;;;;;-0.94;74.82;99874.86;1683831;84;21156;-67
2020/12/11 07:33:17;;;;;;;21.85;13.05;;;;;;;-0.91;74.77;99871.77;1679043;84;21204;-68
2020/12/11 07:35:48;;;;;;;20.00;10.88;;;;;;;-0.99;74.96;99862.81;1730421;83;21479;-67
2020/12/11 07:38:24;;;;;;;22.07;11.75;;;;;;;-1.05;74.55;99872.47;1730181;83;21327;-68
2020/12/11 07:40:53;;;;;;;;;;;;;;;-1.11;74.66;99867.41;1657918;84;21329;-67
2020/12/11 07:43:21;;;;;;;21.35;11.83;;;;;;;-1.16;74.48;99859.73;1700118;84;20280;-68
2020/12/11 07:45:49;;;;;;;25.00;12.37;;;;;;;-1.23;74.91;99869.39;1701344;83;21770;-67
2020/12/11 07:48:16;;;;;;;20.68;12.18;;;;;;;-1.23;74.86;99869.39;1670610;86;21227;-67
2020/12/11 07:50:45;;;;;;;22.73;11.20;;;;;;;-1.26;74.92;99870.73;1711074;82;21714;-67
2020/12/11 07:53:13;;;;;;;22.32;11.85;;;;;;;-1.30;74.86;99876.88;1718054;82;21333;-68
2020/12/11 07:55:42;;;;;;;26.25;13.10;;;;;;;-1.32;75.05;99874.73;1706906;82;21206;-68
2020/12/11 07:58:09;;;;;;;25.70;12.78;;;;;;;-1.40;74.56;99872.30;1701425;82;21599;-68
2020/12/11 08:00:37;;;;;;;21.87;12.73;;;;;;;-1.40;74.74;99867.10;1696450;83;21801;-68
2020/12/11 08:03:08;;;;;;;22.85;12.63;;;;;;;-1.43;74.52;99872.79;1707399;83;21178;-68
2020/12/11 08:05:38;;;;;;;28.42;13.62;;;;;;;-1.47;74.41;99878.50;1698527;83;21602;-68
2020/12/11 08:08:06;;;;;;;28.98;12.93;;;;;;;-1.45;74.77;99883.20;1747714;81;21408;-68
2020/12/11 08:10:40;;;;;;;26.20;12.98;;;;;;;-1.44;75.02;99877.59;1752984;81;21154;-68
2020/12/11 08:13:13;;;;;;;22.93;12.43;;;;;;;-1.42;74.63;99875.38;1739279;81;21309;-68
2020/12/11 08:15:43;;;;;;;27.02;13.88;;;;;;;-1.45;74.51;99871.98;1733676;81;21595;-68
2020/12/11 08:18:20;;;;;;;25.50;13.40;;;;;;;-1.45;74.38;99870.69;1743641;81;21199;-68
2020/12/11 08:21:00;;;;;;;26.37;13.25;;;;;;;-1.46;74.50;99872.86;1720045;82;21226;-68
2020/12/11 08:23:35;;;;;;;25.48;13.18;;;;;;;-1.50;75.06;99874.65;1744175;81;21242;-67
2020/12/11 08:26:11;;;;;;;26.12;13.98;;;;;;;-1.45;75.23;99883.66;1732493;82;21127;-68
2020/12/11 08:28:39;;;;;;;29.75;14.50;;;;;;;-1.51;75.04;99872.94;1747879;82;21348;-68
2020/12/11 08:31:25;;;;;;;27.22;13.68;;;;;;;-1.52;74.71;99866.91;1742069;81;21163;-68
2020/12/11 08:34:08;;;;;;;30.43;15.70;;;;;;;-1.56;74.80;99871.74;1741436;82;21199;-68
2020/12/11 08:36:42;;;;;;;25.35;14.33;;;;;;;-1.54;74.94;99871.70;1740679;81;21225;-68
2020/12/11 08:39:19;;;;;;;26.70;14.87;;;;;;;-1.59;75.07;99876.12;1737885;82;21549;-68
2020/12/11 08:42:12;;;;;;;23.57;13.75;;;;;;;-1.62;75.38;99874.45;1749808;81;21133;-67
2020/12/11 08:52:48;;;;;;;26.55;14.87;;;;;;;-1.55;75.33;99865.68;1932654;73;22876;-68
2020/12/11 08:55:15;;;;;;;25.50;14.13;;;;;;;-1.56;75.26;99871.74;1901180;75;21146;-69
2020/12/11 08:57:42;;;;;;;26.02;13.22;;;;;;;-1.54;74.60;99871.70;1902752;75;21116;-68
2020/12/11 09:00:10;;;;;;;29.20;13.20;;;;;;;-1.55;74.67;99879.95;1899769;75;21127;-68
2020/12/11 09:02:39;;;;;;;28.57;13.03;;;;;;;-1.58;74.68;99867.02;1901375;75;21759;-68
2020/12/11 09:05:06;;;;;;;25.72;14.68;;;;;;;-1.54;74.96;99859.58;1879895;75;21552;-69
2020/12/11 09:07:36;;;;;;;23.87;13.50;;;;;;;-1.52;74.36;99863.02;1900639;74;21266;-68
2020/12/11 09:10:05;;;;;;;25.45;13.88;;;;;;;-1.51;74.28;99850.47;1817314;78;21170;-68
2020/12/11 09:12:36;;;;;;;27.13;13.85;;;;;;;-1.50;74.50;99851.30;1796287;78;21622;-68
2020/12/11 09:15:08;;;;;;;32.50;15.30;;;;;;;-1.51;74.74;99850.47;1788479;78;21148;-68
2020/12/11 09:17:36;;;;;;;27.07;14.07;;;;;;;-1.52;75.19;99852.64;1808984;78;21667;-68
2020/12/11 09:20:05;;;;;;;27.52;15.63;;;;;;;-1.49;75.24;99843.94;1801731;79;21171;-68
2020/12/11 09:22:33;;;;;;;26.27;13.90;;;;;;;-1.47;74.94;99850.39;1811644;78;21338;-68
2020/12/11 09:25:01;;;;;;;30.43;15.00;;;;;;;-1.44;74.54;99851.19;1792519;79;21182;-67
2020/12/11 09:27:28;;;;;;;27.10;13.90;;;;;;;-1.43;74.63;99855.92;1779040;78;21151;-68
2020/12/11 09:30:09;;;;;;;29.15;14.75;;;;;;;-1.42;74.86;99851.16;1812067;78;21145;-67
2020/12/11 09:32:35;;;;;;;28.92;14.65;;;;;;;-1.43;74.71;99842.53;1788659;79;21294;-68
2020/12/11 09:34:54;;;;;;;32.58;16.82;;;;;;;-1.45;74.40;99848.63;1802063;79;21183;-68
2020/12/11 09:37:21;;;;;;;24.30;13.22;;;;;;;-1.46;74.14;99852.95;1799636;79;21352;-68
2020/12/11 09:39:49;;;;;;;30.45;15.53;;;;;;;-1.50;74.68;99848.29;1801760;78;21142;-68
2020/12/11 09:45:08;;;;;;;27.07;15.95;;;;;;;-1.47;74.66;99832.23;1798797;79;23461;-67
2020/12/11 09:47:53;;;;;;;29.98;16.15;;;;;;;-1.51;74.61;99821.93;1769234;80;21312;-67
2020/12/11 09:58:09;;;;;;;30.88;16.42;;;;;;;-1.57;74.62;99823.77;1778621;79;22977;-68
2020/12/11 10:00:40;;;;;;;30.97;17.12;;;;;;;-1.61;74.87;99823.00;1762548;80;21603;-67
2020/12/11 10:03:08;;;;;;;33.20;17.62;;;;;;;-1.57;75.04;99824.64;1663022;85;21285;-68
2020/12/11 10:05:35;;;;;;;36.38;18.85;;;;;;;-1.58;74.81;99830.70;1722582;82;21161;-68
2020/12/11 10:08:02;;;;;;;31.17;16.23;;;;;;;-1.52;75.04;99811.14;1694670;82;21226;-68
2020/12/11 10:10:29;;;;;;;26.62;14.55;;;;;;;-1.53;74.58;99810.72;1692769;82;21178;-67
2020/12/11 10:12:57;;;;;;;31.10;15.85;;;;;;;-1.55;74.89;99800.84;1707377;82;21583;-69
2020/12/11 10:15:24;;;;;;;29.52;16.05;;;;;;;-1.54;74.56;99805.11;1724133;82;21214;-68
2020/12/11 10:17:52;;;;;;;27.37;15.58;;;;;;;-1.59;74.49;99805.64;1725825;82;21300;-68
2020/12/11 10:20:20;;;;;;;31.45;16.10;;;;;;;-1.56;74.18;99799.55;1712522;83;21195;-67
2020/12/11 10:22:54;;;;;;;33.30;16.90;;;;;;;-1.59;74.56;99821.20;1706064;82;21615;-68
2020/12/11 10:25:21;;;;;;;28.52;16.70;;;;;;;-1.58;74.10;99803.47;1702256;84;21190;-67
2020/12/11 10:27:49;;;;;;;34.40;16.82;;;;;;;-1.59;73.98;99800.46;1692197;82;21193;-67
2020/12/11 10:30:16;;;;;;;27.82;14.58;;;;;;;-1.58;74.40;99815.59;1685865;84;21173;-67
2020/12/11 10:32:44;;;;;;;28.47;15.40;;;;;;;-1.60;74.68;99805.23;1688653;82;21592;-68
2020/12/11 10:35:12;;;;;;;28.85;15.10;;;;;;;-1.62;74.71;99808.73;1709112;82;21197;-67
2020/12/11 10:37:40;;;;;;;29.37;15.40;;;;;;;-1.60;74.74;99795.31;1710012;83;21355;-69
2020/12/11 10:40:07;;;;;;;26.75;15.80;;;;;;;-1.58;74.78;99797.44;1705972;82;21586;-68
2020/12/11 10:42:34;;;;;;;30.30;16.75;;;;;;;-1.60;74.49;99797.45;1701612;84;21177;-68
2020/12/11 10:45:02;;;;;;;33.18;16.70;;;;;;;-1.61;74.63;99792.30;1694076;82;21205;-67
2020/12/11 10:47:30;;;;;;;34.20;16.73;;;;;;;-1.55;74.68;99786.99;1709150;84;21353;-68
2020/12/11 10:49:58;;;;;;;31.48;16.42;;;;;;;-1.59;74.69;99791.38;1685401;84;21170;-68
2020/12/11 10:52:25;;;;;;;27.35;15.05;;;;;;;-1.59;73.87;99781.01;1708158;82;21193;-68
2020/12/11 10:54:55;;;;;;;28.47;15.68;;;;;;;-1.58;74.00;99781.42;1707973;84;21752;-68
2020/12/11 10:57:22;;;;;;;32.05;17.27;;;;;;;-1.60;73.84;99784.94;1708640;82;21754;-69
2020/12/11 10:59:49;;;;;;;31.68;16.90;;;;;;;-1.63;74.04;99791.49;1682232;84;21215;-69
2020/12/11 11:02:17;;;;;;;32.08;16.62;;;;;;;-1.67;74.37;99790.23;1688178;83;21231;-68
2020/12/11 11:04:44;;;;;;;29.05;15.08;;;;;;;-1.67;73.89;99786.80;1683535;83;21163;-68
2020/12/11 11:07:18;;;;;;;29.50;17.10;;;;;;;-1.71;74.33;99785.16;1693882;83;21344;-68
2020/12/11 11:10:01;;;;;;;27.58;15.48;;;;;;;-1.66;74.51;99793.70;1690991;84;21187;-68
2020/12/11 11:12:28;;;;;;;28.52;15.88;;;;;;;-1.69;74.79;99788.14;1676484;84;21186;-69
2020/12/11 11:23:21;;;;;;;32.23;16.23;;;;;;;-1.67;74.50;99782.91;1905827;73;23403;-68
2020/12/11 11:28:26;;;;;;;28.17;15.20;;;;;;;-1.76;74.46;99775.32;1856233;76;21477;-69
2020/12/11 11:30:54;;;;;;;27.82;16.27;;;;;;;-1.77;75.20;99764.08;1865631;75;21268;-69
2020/12/11 11:33:21;;;;;;;24.55;13.20;;;;;;;-1.78;74.64;99783.56;1866243;75;21166;-69
2020/12/11 11:35:49;;;;;;;23.87;14.45;;;;;;;-1.82;74.36;99765.91;1871058;75;21163;-69
2020/12/11 11:38:19;;;;;;;23.85;13.38;;;;;;;-1.91;74.11;99780.34;1883554;75;21277;-70
2020/12/11 11:40:48;;;;;;;22.32;13.55;;;;;;;-1.93;74.23;99773.03;1853871;75;21158;-68
2020/12/11 11:43:22;;;;;;;25.20;12.60;;;;;;;-1.90;74.51;99782.91;1862793;75;21489;-69
2020/12/11 11:45:45;;;;;;;22.05;12.78;;;;;;;-1.94;74.70;99785.57;1823147;77;21285;-69
2020/12/11 11:48:16;;;;;;;21.60;12.73;;;;;;;-1.95;74.38;99765.28;1810683;76;21295;-69
2020/12/11 11:53:34;;;;;;;21.45;13.40;;;;;;;-1.90;74.52;99769.94;1794846;79;22958;-68
2020/12/11 11:56:01;;;;;;;27.98;15.50;;;;;;;-1.92;74.55;99766.97;1731897;82;21182;-70
2020/12/11 11:58:28;;;;;;;24.57;13.35;;;;;;;-1.95;74.25;99793.80;1763936;80;21175;-69
2020/12/11 12:00:55;;;;;;;24.60;12.88;;;;;;;-2.00;74.45;99774.89;1693943;84;21197;-69
2020/12/11 12:03:24;;;;;;;21.97;13.35;;;;;;;-2.07;74.25;99780.63;1717902;82;21190;-70
2020/12/11 12:05:52;;;;;;;25.55;14.63;;;;;;;-2.07;74.43;99777.17;1677037;82;21630;-70
2020/12/11 12:08:20;;;;;;;27.35;14.38;;;;;;;-2.13;74.04;99761.30;1676507;84;21205;-70
2020/12/11 12:10:48;;;;;;;22.60;12.58;;;;;;;-2.18;74.15;99772.19;1725021;81;21168;-69
2020/12/11 12:13:16;;;;;;;24.40;13.15;;;;;;;-2.22;74.60;99772.68;1724721;83;21277;-69
2020/12/11 12:15:43;;;;;;;23.12;13.68;;;;;;;-2.21;74.79;99770.93;1718765;81;21193;-70